Time;durP1;ratioP1;P1;durP2;ratioP2;P2;SDS_P1;SDS_P2;PMS_P1;PMS_P2;Temp;Humidity;BMP_temperature;BMP_pressure;BME280_temperature;BME280_humidity;BME280_pressure;Samples;Min_cycle;Max_cycle;Signal;HPM_P1;HPM_P2
2023/09/28 00:02:08;;;;;;;19.35;16.08;;;;;;;;;;5016616;28;20018;-74
2023/09/28 00:04:34;;;;;;;19.55;15.35;;;;;;;;;;5016478;28;20092;-74
2023/09/28 00:07:00;;;;;;;18.27;14.52;;;;;;;;;;5016236;28;20076;-74
2023/09/28 00:09:26;;;;;;;19.88;15.43;;;;;;;;;;5016319;28;20028;-73
2023/09/28 00:11:52;;;;;;;16.40;14.68;;;;;;;;;;4998680;28;20022;-73
2023/09/28 00:14:18;;;;;;;19.27;14.85;;;;;;;;;;5016451;28;20030;-74
2023/09/28 00:16:45;;;;;;;17.20;14.68;;;;;;;;;;5015939;28;20108;-74
2023/09/28 00:19:11;;;;;;;16.80;14.23;;;;;;;;;;5016362;28;20164;-73
2023/09/28 00:21:37;;;;;;;16.88;14.55;;;;;;;;;;5015967;28;20431;-74
2023/09/28 00:24:03;;;;;;;19.00;14.65;;;;;;;;;;5015871;28;20041;-74
2023/09/28 00:26:29;;;;;;;16.60;14.15;;;;;;;;;;5014865;28;20057;-74
2023/09/28 00:28:55;;;;;;;16.98;14.32;;;;;;;;;;5015847;28;20669;-74
2023/09/28 00:31:21;;;;;;;20.38;14.38;;;;;;;;;;5015904;28;20097;-73
2023/09/28 00:34:06;;;;;;;17.00;14.48;;;;;;;;;;5015928;28;20096;-73
2023/09/28 00:36:32;;;;;;;17.35;13.20;;;;;;;;;;4998327;28;20038;-73
2023/09/28 00:38:58;;;;;;;16.73;12.45;;;;;;;;;;5015863;28;20034;-74
2023/09/28 00:41:24;;;;;;;15.07;11.63;;;;;;;;;;5015749;28;20033;-74
2023/09/28 00:43:50;;;;;;;12.18;10.90;;;;;;;;;;5015561;28;20037;-74
2023/09/28 00:46:16;;;;;;;14.52;11.20;;;;;;;;;;5015534;28;20026;-74
2023/09/28 00:48:50;;;;;;;13.45;10.68;;;;;;;;;;5015548;28;20026;-73
2023/09/28 00:51:16;;;;;;;10.68;9.57;;;;;;;;;;5016194;28;20404;-74
2023/09/28 00:53:42;;;;;;;10.68;9.02;;;;;;;;;;5015687;28;20022;-74
2023/09/28 00:56:08;;;;;;;9.65;8.63;;;;;;;;;;5015415;28;20024;-73
2023/09/28 00:58:37;;;;;;;8.82;7.93;;;;;;;;;;5015276;28;20087;-73
2023/09/28 01:01:06;;;;;;;12.15;8.10;;;;;;;;;;5015633;28;20022;-74
2023/09/28 01:03:33;;;;;;;11.88;8.10;;;;;;;;;;5015014;28;20063;-74
2023/09/28 01:05:59;;;;;;;9.48;8.48;;;;;;;;;;5015393;28;20060;-74
2023/09/28 01:08:25;;;;;;;10.48;8.80;;;;;;;;;;5015122;28;20036;-74
2023/09/28 01:10:51;;;;;;;11.75;8.60;;;;;;;;;;5015598;28;20022;-74
2023/09/28 01:13:20;;;;;;;11.77;8.10;;;;;;;;;;4997142;28;20030;-74
2023/09/28 01:16:09;;;;;;;10.75;8.65;;;;;;;;;;5015777;28;20041;-74
2023/09/28 01:18:36;;;;;;;9.50;8.35;;;;;;;;;;4997215;28;20041;-74
2023/09/28 01:21:02;;;;;;;10.57;8.23;;;;;;;;;;5015141;28;20022;-74
2023/09/28 01:23:28;;;;;;;10.82;8.40;;;;;;;;;;5014872;28;20040;-74
2023/09/28 01:25:54;;;;;;;10.18;7.93;;;;;;;;;;5014998;28;20152;-74
2023/09/28 01:28:21;;;;;;;9.52;7.20;;;;;;;;;;5014796;28;20125;-74
2023/09/28 01:30:47;;;;;;;9.68;8.45;;;;;;;;;;5014947;28;20026;-74
2023/09/28 01:33:13;;;;;;;9.23;7.30;;;;;;;;;;5014653;28;20048;-74
2023/09/28 01:35:40;;;;;;;10.45;8.10;;;;;;;;;;5014706;28;20384;-74
2023/09/28 01:38:19;;;;;;;10.65;7.68;;;;;;;;;;5015020;28;20094;-74
2023/09/28 01:40:47;;;;;;;13.05;7.97;;;;;;;;;;5015172;28;20044;-74
2023/09/28 01:43:14;;;;;;;8.48;6.97;;;;;;;;;;5014657;28;20135;-74
2023/09/28 01:45:40;;;;;;;8.70;7.18;;;;;;;;;;5015088;28;20089;-74
2023/09/28 01:48:07;;;;;;;8.52;7.63;;;;;;;;;;5014256;28;20464;-74
2023/09/28 01:50:33;;;;;;;9.05;7.60;;;;;;;;;;5014917;28;20025;-74
2023/09/28 01:52:59;;;;;;;9.27;7.70;;;;;;;;;;5014597;28;20061;-74
2023/09/28 01:55:25;;;;;;;10.82;7.57;;;;;;;;;;5014523;28;20098;-73
2023/09/28 01:57:52;;;;;;;11.40;7.78;;;;;;;;;;5014342;28;20022;-74
2023/09/28 02:00:32;;;;;;;8.35;7.13;;;;;;;;;;5014212;28;20396;-74
2023/09/28 02:02:58;;;;;;;;;;;;;;;;;;5014802;28;20030;-73
2023/09/28 02:05:26;;;;;;;9.73;7.15;;;;;;;;;;5014445;28;19916;-74
2023/09/28 02:07:53;;;;;;;10.02;6.95;;;;;;;;;;5014646;28;20022;-74
2023/09/28 02:10:19;;;;;;;10.75;7.28;;;;;;;;;;5014265;28;20519;-75
2023/09/28 02:12:45;;;;;;;8.88;7.05;;;;;;;;;;5013975;28;20034;-75
2023/09/28 02:15:14;;;;;;;9.70;7.15;;;;;;;;;;5013693;28;20101;-74
2023/09/28 02:17:40;;;;;;;10.07;7.55;;;;;;;;;;5014214;28;20108;-75
2023/09/28 02:20:10;;;;;;;13.02;8.20;;;;;;;;;;5013915;28;20026;-75
2023/09/28 02:22:43;;;;;;;13.07;7.53;;;;;;;;;;5014124;28;20168;-75
2023/09/28 02:25:09;;;;;;;11.77;7.75;;;;;;;;;;5014211;28;20120;-75
2023/09/28 02:27:36;;;;;;;10.30;8.00;;;;;;;;;;5013785;28;20042;-75
2023/09/28 02:30:04;;;;;;;13.80;8.07;;;;;;;;;;5014107;28;20416;-75
2023/09/28 02:32:30;;;;;;;9.02;7.15;;;;;;;;;;4996155;28;20451;-74
2023/09/28 02:34:56;;;;;;;12.85;8.15;;;;;;;;;;5014345;28;20033;-75
2023/09/28 02:37:22;;;;;;;11.65;7.82;;;;;;;;;;5013549;28;20026;-75
2023/09/28 02:39:48;;;;;;;9.57;7.65;;;;;;;;;;5013585;28;20469;-75
2023/09/28 02:42:14;;;;;;;13.00;8.10;;;;;;;;;;5013835;28;20034;-75
2023/09/28 02:44:45;;;;;;;11.82;8.05;;;;;;;;;;5013451;28;20034;-75
2023/09/28 02:47:11;;;;;;;10.57;7.55;;;;;;;;;;5013916;28;20080;-75
2023/09/28 02:49:37;;;;;;;10.50;7.50;;;;;;;;;;5013888;28;20030;-75
2023/09/28 02:52:03;;;;;;;8.73;7.25;;;;;;;;;;5014033;28;20029;-75
2023/09/28 02:54:30;;;;;;;11.48;7.60;;;;;;;;;;5013474;28;20376;-75
2023/09/28 02:56:56;;;;;;;9.45;7.70;;;;;;;;;;5013662;28;20503;-75
2023/09/28 02:59:22;;;;;;;11.98;7.50;;;;;;;;;;5013653;28;20026;-75
2023/09/28 03:01:49;;;;;;;8.57;7.50;;;;;;;;;;5014401;28;20572;-75
2023/09/28 03:04:16;;;;;;;11.23;7.60;;;;;;;;;;5013457;28;20088;-75
2023/09/28 03:06:42;;;;;;;10.93;7.60;;;;;;;;;;5013396;28;20021;-75
2023/09/28 03:09:09;;;;;;;12.05;7.43;;;;;;;;;;5013568;28;20018;-75
2023/09/28 03:11:36;;;;;;;10.45;7.80;;;;;;;;;;5013775;28;20029;-75
2023/09/28 03:14:03;;;;;;;12.13;7.65;;;;;;;;;;5013431;28;20029;-75
2023/09/28 03:16:29;;;;;;;9.32;7.72;;;;;;;;;;5013515;28;20033;-75
2023/09/28 03:18:57;;;;;;;10.00;7.60;;;;;;;;;;5013474;28;20461;-74
2023/09/28 03:21:23;;;;;;;12.90;8.35;;;;;;;;;;5013667;28;20024;-75
2023/09/28 03:23:50;;;;;;;10.27;7.50;;;;;;;;;;5013365;28;20136;-75
2023/09/28 03:26:16;;;;;;;11.68;7.75;;;;;;;;;;5013635;28;20050;-75
2023/09/28 03:29:04;;;;;;;10.95;7.35;;;;;;;;;;5017086;28;20423;-75
2023/09/28 03:31:32;;;;;;;10.23;7.28;;;;;;;;;;5017628;28;20124;-75
2023/09/28 03:33:59;;;;;;;10.38;7.90;;;;;;;;;;5017420;28;20032;-75
2023/09/28 03:36:30;;;;;;;10.70;8.02;;;;;;;;;;4999447;28;20400;-75
2023/09/28 03:38:56;;;;;;;9.50;7.20;;;;;;;;;;5017097;28;20437;-74
2023/09/28 03:41:23;;;;;;;10.80;7.53;;;;;;;;;;5017218;28;20083;-75
2023/09/28 03:43:49;;;;;;;11.23;7.38;;;;;;;;;;5017362;28;20030;-75
2023/09/28 03:46:21;;;;;;;10.35;7.55;;;;;;;;;;5016748;28;20096;-75
2023/09/28 03:48:47;;;;;;;15.57;7.53;;;;;;;;;;5016982;28;20891;-75
2023/09/28 03:51:16;;;;;;;12.90;6.85;;;;;;;;;;5017076;28;20100;-75
2023/09/28 03:53:42;;;;;;;14.65;7.05;;;;;;;;;;5017206;28;20026;-75
2023/09/28 03:56:08;;;;;;;10.60;6.45;;;;;;;;;;5017396;28;20030;-75
2023/09/28 03:58:34;;;;;;;16.00;6.45;;;;;;;;;;5016576;28;20026;-75
2023/09/28 04:01:03;;;;;;;12.32;5.85;;;;;;;;;;5016363;28;20465;-75
2023/09/28 04:03:30;;;;;;;11.05;5.68;;;;;;;;;;5014976;28;20087;-75
2023/09/28 04:05:56;;;;;;;15.10;6.18;;;;;;;;;;5014898;28;20063;-75
2023/09/28 04:08:22;;;;;;;14.10;5.30;;;;;;;;;;5016562;28;20496;-75
2023/09/28 04:11:11;;;;;;;13.80;5.30;;;;;;;;;;5016379;28;20021;-75
2023/09/28 04:13:37;;;;;;;8.85;4.15;;;;;;;;;;5016234;28;20029;-74
2023/09/28 04:16:03;;;;;;;10.50;3.83;;;;;;;;;;5016441;28;20033;-74
2023/09/28 04:18:29;;;;;;;16.08;3.60;;;;;;;;;;5016111;28;20061;-75
2023/09/28 04:20:56;;;;;;;12.13;3.40;;;;;;;;;;5016348;28;20152;-75
2023/09/28 04:23:22;;;;;;;8.75;3.50;;;;;;;;;;5015787;28;20030;-75
2023/09/28 04:25:48;;;;;;;11.88;2.58;;;;;;;;;;5015540;28;20022;-75
2023/09/28 04:28:14;;;;;;;14.40;2.63;;;;;;;;;;5014995;28;20504;-74
2023/09/28 04:30:40;;;;;;;16.10;3.08;;;;;;;;;;5015865;28;20026;-74
2023/09/28 04:33:06;;;;;;;12.18;2.72;;;;;;;;;;5015939;28;20152;-74
2023/09/28 04:35:32;;;;;;;15.77;2.47;;;;;;;;;;5015861;28;20076;-74
2023/09/28 04:37:58;;;;;;;17.60;2.75;;;;;;;;;;5015551;28;20030;-74
2023/09/28 04:40:25;;;;;;;13.43;2.30;;;;;;;;;;5015781;28;20109;-74
2023/09/28 04:42:51;;;;;;;17.48;2.45;;;;;;;;;;5015851;28;20096;-75
2023/09/28 04:45:19;;;;;;;17.45;3.30;;;;;;;;;;5015518;28;20114;-75
2023/09/28 04:47:46;;;;;;;16.92;2.50;;;;;;;;;;5015817;28;20105;-74
2023/09/28 04:50:12;;;;;;;12.98;2.67;;;;;;;;;;5015861;28;20060;-74
2023/09/28 04:52:43;;;;;;;16.00;2.88;;;;;;;;;;5015412;28;20061;-74
2023/09/28 04:55:10;;;;;;;14.68;2.72;;;;;;;;;;5016033;28;20018;-74
2023/09/28 04:57:36;;;;;;;18.67;2.95;;;;;;;;;;5015428;28;20060;-74
2023/09/28 05:00:06;;;;;;;17.25;2.53;;;;;;;;;;5015609;28;20125;-75
2023/09/28 05:02:32;;;;;;;;;;;;;;;;;;5016400;28;20029;-75
2023/09/28 05:04:58;;;;;;;19.35;3.10;;;;;;;;;;5015413;28;19913;-75
2023/09/28 05:07:24;;;;;;;18.52;3.22;;;;;;;;;;5015422;28;20640;-75
2023/09/28 05:09:50;;;;;;;24.67;3.88;;;;;;;;;;5015103;28;20026;-75
2023/09/28 05:12:16;;;;;;;18.27;2.78;;;;;;;;;;5015235;28;20126;-75
2023/09/28 05:14:42;;;;;;;17.88;2.67;;;;;;;;;;5015642;28;20426;-75
2023/09/28 05:17:08;;;;;;;22.23;3.17;;;;;;;;;;5015035;28;20068;-75
2023/09/28 05:19:34;;;;;;;11.40;2.72;;;;;;;;;;5014851;28;20083;-75
2023/09/28 05:22:00;;;;;;;18.92;2.63;;;;;;;;;;5014908;28;20465;-75
2023/09/28 05:24:26;;;;;;;19.52;3.08;;;;;;;;;;5014853;28;20072;-75
2023/09/28 05:26:52;;;;;;;18.58;2.70;;;;;;;;;;5014284;28;20046;-75
2023/09/28 05:29:18;;;;;;;21.05;3.67;;;;;;;;;;5014778;28;20018;-75
2023/09/28 05:31:46;;;;;;;16.33;2.55;;;;;;;;;;5014770;28;20369;-75
2023/09/28 05:34:12;;;;;;;17.63;2.83;;;;;;;;;;5014569;28;20018;-75
2023/09/28 05:36:41;;;;;;;24.08;3.15;;;;;;;;;;5014321;28;20030;-75
2023/09/28 05:39:08;;;;;;;18.00;3.27;;;;;;;;;;5014821;28;20030;-75
2023/09/28 05:41:34;;;;;;;21.48;3.58;;;;;;;;;;5014996;28;20026;-75
2023/09/28 05:44:01;;;;;;;19.75;3.20;;;;;;;;;;5014693;28;20045;-75
2023/09/28 05:46:27;;;;;;;23.40;3.70;;;;;;;;;;5014794;28;20018;-75
2023/09/28 05:48:53;;;;;;;18.27;3.20;;;;;;;;;;5014564;28;20037;-75
2023/09/28 05:51:20;;;;;;;21.85;3.53;;;;;;;;;;5014180;28;20072;-75
2023/09/28 05:53:46;;;;;;;18.05;3.40;;;;;;;;;;5014822;28;20026;-75
2023/09/28 05:56:12;;;;;;;16.77;2.70;;;;;;;;;;5014239;28;20028;-75
2023/09/28 05:58:37;;;;;;;18.50;2.90;;;;;;;;;;5014443;28;20453;-75
2023/09/28 06:01:07;;;;;;;24.67;3.38;;;;;;;;;;5014254;28;20026;-75
2023/09/28 06:03:35;;;;;;;25.60;3.90;;;;;;;;;;5014347;28;20029;-75
2023/09/28 06:06:02;;;;;;;24.92;3.75;;;;;;;;;;4995779;28;20100;-75
2023/09/28 06:08:28;;;;;;;23.50;3.35;;;;;;;;;;5014616;28;20014;-75
2023/09/28 06:10:54;;;;;;;23.27;3.72;;;;;;;;;;5013921;28;20079;-74
2023/09/28 06:13:20;;;;;;;17.58;3.20;;;;;;;;;;5014232;28;20469;-75
2023/09/28 06:15:46;;;;;;;26.92;3.15;;;;;;;;;;5014071;28;20030;-75
2023/09/28 06:18:12;;;;;;;20.85;3.25;;;;;;;;;;5014265;28;20030;-75
2023/09/28 06:23:46;;;;;;;24.10;4.07;;;;;;;;;;5014140;28;20436;-75
2023/09/28 06:26:12;;;;;;;25.60;4.03;;;;;;;;;;5014246;28;20029;-74
2023/09/28 06:28:38;;;;;;;19.92;3.58;;;;;;;;;;5013173;28;20038;-74
2023/09/28 06:31:04;;;;;;;27.67;3.28;;;;;;;;;;5013916;28;20100;-75
2023/09/28 06:33:30;;;;;;;22.63;3.63;;;;;;;;;;5013881;28;20108;-75
2023/09/28 06:35:57;;;;;;;21.80;3.58;;;;;;;;;;5014424;28;20030;-75
2023/09/28 06:38:23;;;;;;;21.98;3.08;;;;;;;;;;5014391;28;20036;-75
2023/09/28 06:40:49;;;;;;;22.17;3.58;;;;;;;;;;5013912;28;20021;-75
2023/09/28 06:43:15;;;;;;;18.40;2.70;;;;;;;;;;5013517;28;20107;-75
2023/09/28 06:45:41;;;;;;;18.95;3.42;;;;;;;;;;5013940;28;20022;-74
2023/09/28 06:48:07;;;;;;;18.00;3.28;;;;;;;;;;5013794;28;20025;-75
2023/09/28 06:50:39;;;;;;;17.80;3.08;;;;;;;;;;5014152;28;20064;-75
2023/09/28 06:53:05;;;;;;;26.23;3.40;;;;;;;;;;5014010;28;20195;-75
2023/09/28 06:55:31;;;;;;;17.10;3.05;;;;;;;;;;5014073;28;20041;-74
2023/09/28 06:57:57;;;;;;;22.50;3.22;;;;;;;;;;5013835;28;20346;-75
2023/09/28 07:00:23;;;;;;;14.82;3.10;;;;;;;;;;5013976;28;20076;-75
2023/09/28 07:02:50;;;;;;;22.65;3.75;;;;;;;;;;5017431;28;20030;-75
2023/09/28 07:05:19;;;;;;;20.88;3.20;;;;;;;;;;5017550;28;20029;-75
2023/09/28 07:07:45;;;;;;;21.93;3.67;;;;;;;;;;5008088;28;20026;-75
2023/09/28 07:10:13;;;;;;;19.77;3.88;;;;;;;;;;4997866;28;20030;-75
2023/09/28 07:12:40;;;;;;;21.70;4.22;;;;;;;;;;5003184;28;20021;-75
2023/09/28 07:15:06;;;;;;;17.77;3.35;;;;;;;;;;5017919;28;20448;-74
2023/09/28 07:17:33;;;;;;;24.52;3.95;;;;;;;;;;5017344;28;20018;-75
2023/09/28 07:20:00;;;;;;;21.67;3.30;;;;;;;;;;5017326;28;20105;-75
2023/09/28 07:22:26;;;;;;;20.50;2.65;;;;;;;;;;5017175;28;20033;-75
2023/09/28 07:24:53;;;;;;;19.80;3.25;;;;;;;;;;5017270;28;20045;-75
2023/09/28 07:27:19;;;;;;;22.63;3.17;;;;;;;;;;5016079;28;20042;-75
2023/09/28 07:29:45;;;;;;;23.25;3.08;;;;;;;;;;5017208;28;20405;-75
2023/09/28 07:32:11;;;;;;;19.65;2.95;;;;;;;;;;5017148;28;20512;-74
2023/09/28 07:34:37;;;;;;;22.65;3.10;;;;;;;;;;5016947;28;20029;-75
2023/09/28 07:37:03;;;;;;;17.13;3.28;;;;;;;;;;5017563;28;20022;-75
2023/09/28 07:39:29;;;;;;;16.27;2.85;;;;;;;;;;5017168;28;20064;-75
2023/09/28 07:41:55;;;;;;;16.83;3.22;;;;;;;;;;5017124;28;20029;-75
2023/09/28 07:44:21;;;;;;;19.45;2.85;;;;;;;;;;5016811;28;20041;-75
2023/09/28 07:46:47;;;;;;;21.13;3.13;;;;;;;;;;5016292;28;20021;-75
2023/09/28 07:49:21;;;;;;;18.25;3.17;;;;;;;;;;5016335;28;20030;-75
2023/09/28 07:51:47;;;;;;;21.73;3.35;;;;;;;;;;5016431;28;20108;-75
2023/09/28 07:54:13;;;;;;;18.27;2.92;;;;;;;;;;5016584;28;20136;-75
2023/09/28 07:56:39;;;;;;;22.77;3.22;;;;;;;;;;5016278;28;20022;-75
2023/09/28 07:59:05;;;;;;;14.75;2.90;;;;;;;;;;5016299;28;20789;-75
2023/09/28 08:01:36;;;;;;;16.92;2.38;;;;;;;;;;5016469;28;20030;-75
2023/09/28 08:04:02;;;;;;;21.42;2.97;;;;;;;;;;5016341;28;20040;-75
2023/09/28 08:06:28;;;;;;;14.15;2.90;;;;;;;;;;5016321;28;20021;-75
2023/09/28 08:08:54;;;;;;;21.13;3.08;;;;;;;;;;5016152;28;20018;-75
2023/09/28 08:11:20;;;;;;;18.95;2.97;;;;;;;;;;5016158;28;20026;-75
2023/09/28 08:13:46;;;;;;;15.48;3.13;;;;;;;;;;5015349;28;20045;-75
2023/09/28 08:16:12;;;;;;;24.48;2.97;;;;;;;;;;5016019;28;20516;-75
2023/09/28 08:18:39;;;;;;;15.35;3.00;;;;;;;;;;5016281;28;20025;-75
2023/09/28 08:21:05;;;;;;;16.60;2.92;;;;;;;;;;5016310;28;20030;-75
2023/09/28 08:23:36;;;;;;;16.42;2.88;;;;;;;;;;5015629;28;20038;-74
2023/09/28 08:26:01;;;;;;;17.00;3.00;;;;;;;;;;5016203;28;20105;-75
2023/09/28 08:28:27;;;;;;;16.95;2.97;;;;;;;;;;5016008;28;20089;-75
2023/09/28 08:30:54;;;;;;;17.48;2.90;;;;;;;;;;5015667;28;20436;-75
2023/09/28 08:33:22;;;;;;;17.75;2.95;;;;;;;;;;5015727;28;20037;-75
2023/09/28 09:17:24;;;;;;;16.33;3.03;;;;;;;;;;3980148;23;20260;-76
2023/09/28 09:19:50;;;;;;;15.52;2.40;;;;;;;;;;4954863;29;20039;-78
2023/09/28 09:22:25;;;;;;;14.30;2.70;;;;;;;;;;4956753;29;20457;-79
2023/09/28 09:24:55;;;;;;;16.38;2.55;;;;;;;;;;4939128;29;20039;-77
2023/09/28 09:27:27;;;;;;;12.73;2.55;;;;;;;;;;4936781;29;20034;-77
2023/09/28 09:29:56;;;;;;;13.27;2.70;;;;;;;;;;4936513;29;20354;-77
2023/09/28 09:35:00;;;;;;;12.15;2.50;;;;;;;;;;5106358;23;20142;-84
2023/09/28 09:37:25;;;;;;;13.65;2.65;;;;;;;;;;4937648;29;20027;-84
2023/09/28 09:39:52;;;;;;;13.65;2.22;;;;;;;;;;4936044;29;20028;-84
2023/09/28 09:42:27;;;;;;;15.30;2.45;;;;;;;;;;4937225;29;20103;-84
2023/09/28 09:44:54;;;;;;;11.98;2.50;;;;;;;;;;4937868;29;20114;-86
2023/09/28 09:47:20;;;;;;;14.48;2.38;;;;;;;;;;4935992;29;20088;-84
2023/09/28 09:49:49;;;;;;;18.35;2.65;;;;;;;;;;4937704;29;20079;-84
2023/09/28 09:52:15;;;;;;;10.90;2.15;;;;;;;;;;4937383;29;20032;-84
2023/09/28 09:54:42;;;;;;;19.05;2.55;;;;;;;;;;4936986;29;20055;-84
2023/09/28 09:57:10;;;;;;;15.85;2.60;;;;;;;;;;4936051;29;20036;-84
2023/09/28 09:59:36;;;;;;;19.75;3.08;;;;;;;;;;4936056;29;20488;-84
2023/09/28 10:02:04;;;;;;;18.63;2.83;;;;;;;;;;4936922;29;20035;-84
2023/09/28 10:04:31;;;;;;;15.52;2.28;;;;;;;;;;4935582;29;20127;-84
2023/09/28 10:07:00;;;;;;;16.08;3.30;;;;;;;;;;4937104;29;20035;-84
2023/09/28 10:09:26;;;;;;;15.20;2.45;;;;;;;;;;4936098;29;20122;-84
2023/09/28 10:11:52;;;;;;;15.93;3.15;;;;;;;;;;4936292;29;20023;-84
2023/09/28 10:14:19;;;;;;;13.63;2.08;;;;;;;;;;4935806;29;20409;-84
2023/09/28 10:16:48;;;;;;;17.27;3.33;;;;;;;;;;4935303;29;20023;-84
2023/09/28 10:19:17;;;;;;;15.90;3.30;;;;;;;;;;4937005;29;20020;-84
2023/09/28 10:21:43;;;;;;;14.25;2.83;;;;;;;;;;4936968;29;20730;-84
2023/09/28 10:24:10;;;;;;;15.45;2.63;;;;;;;;;;4937696;29;20553;-86
2023/09/28 10:26:40;;;;;;;13.20;2.67;;;;;;;;;;4920357;29;20102;-81
2023/09/28 10:29:06;;;;;;;14.40;2.40;;;;;;;;;;4936816;29;20454;-81
2023/09/28 10:31:34;;;;;;;19.05;3.10;;;;;;;;;;4937307;29;20028;-81
2023/09/28 10:34:02;;;;;;;13.73;2.45;;;;;;;;;;4935878;29;20091;-81
2023/09/28 10:36:28;;;;;;;8.82;2.08;;;;;;;;;;4937246;29;20477;-81
2023/09/28 10:39:17;;;;;;;14.27;2.42;;;;;;;;;;4937114;29;20032;-81
2023/09/28 10:41:49;;;;;;;11.70;2.78;;;;;;;;;;4937283;29;20027;-81
2023/09/28 10:44:18;;;;;;;10.50;1.80;;;;;;;;;;4937191;29;20469;-81
2023/09/28 10:46:47;;;;;;;11.65;2.10;;;;;;;;;;4936627;29;20489;-81
2023/09/28 10:49:14;;;;;;;11.98;2.20;;;;;;;;;;4937399;29;20024;-81
2023/09/28 10:51:40;;;;;;;7.25;1.40;;;;;;;;;;4936903;29;20110;-81
2023/09/28 10:54:06;;;;;;;8.85;1.90;;;;;;;;;;4936794;29;20036;-81
2023/09/28 10:56:32;;;;;;;10.40;2.28;;;;;;;;;;4936801;29;20028;-81
2023/09/28 10:59:00;;;;;;;13.60;3.08;;;;;;;;;;4936446;29;20038;-81
2023/09/28 11:01:26;;;;;;;11.43;2.35;;;;;;;;;;4937109;29;20042;-81
2023/09/28 11:03:54;;;;;;;10.10;2.67;;;;;;;;;;4936681;29;20032;-81
2023/09/28 11:06:20;;;;;;;11.98;2.65;;;;;;;;;;4936643;29;20119;-81
2023/09/28 11:08:46;;;;;;;12.77;1.90;;;;;;;;;;4936736;29;20088;-81
2023/09/28 11:11:12;;;;;;;17.40;2.78;;;;;;;;;;4936583;29;20028;-81
2023/09/28 11:13:39;;;;;;;7.80;1.60;;;;;;;;;;4936442;29;20453;-81
2023/09/28 11:16:05;;;;;;;11.20;2.17;;;;;;;;;;4936692;29;20457;-81
2023/09/28 11:18:31;;;;;;;12.25;1.90;;;;;;;;;;4936460;29;20024;-81
2023/09/28 11:20:58;;;;;;;11.80;2.70;;;;;;;;;;4936692;29;20028;-82
2023/09/28 11:23:24;;;;;;;10.00;2.20;;;;;;;;;;4936494;29;20458;-82
2023/09/28 11:25:51;;;;;;;13.38;2.47;;;;;;;;;;4936629;29;20031;-81
2023/09/28 11:28:17;;;;;;;14.80;2.63;;;;;;;;;;4936495;29;20067;-81
2023/09/28 11:30:43;;;;;;;16.05;2.85;;;;;;;;;;4936579;29;20425;-81
2023/09/28 11:33:09;;;;;;;14.65;2.17;;;;;;;;;;4935261;29;20031;-81
2023/09/28 11:35:38;;;;;;;14.63;2.50;;;;;;;;;;4936142;29;20059;-81
2023/09/28 11:38:10;;;;;;;12.98;2.55;;;;;;;;;;4936812;29;20039;-81
2023/09/28 11:40:36;;;;;;;15.07;2.88;;;;;;;;;;4936687;29;20027;-81
2023/09/28 11:43:02;;;;;;;10.98;2.40;;;;;;;;;;4936089;29;20031;-81
2023/09/28 11:45:29;;;;;;;19.17;2.90;;;;;;;;;;4935788;29;20028;-81
2023/09/28 11:47:55;;;;;;;22.00;2.67;;;;;;;;;;4937258;29;20370;-81
2023/09/28 11:50:23;;;;;;;15.73;2.53;;;;;;;;;;4939352;29;20039;-81
2023/09/28 11:52:50;;;;;;;10.75;2.28;;;;;;;;;;4939677;29;20023;-82
2023/09/28 11:55:16;;;;;;;17.25;2.75;;;;;;;;;;4939552;29;20406;-82
2023/09/28 11:57:45;;;;;;;13.35;2.53;;;;;;;;;;4939262;29;20469;-82
2023/09/28 12:58:07;;;;;;;13.80;3.10;;;;;;;;;;3707933;23;20363;-82
2023/09/28 13:00:33;;;;;;;11.55;2.45;;;;;;;;;;4919500;29;20047;-81
2023/09/28 13:02:59;;;;;;;13.15;2.28;;;;;;;;;;4919976;29;20078;-78
2023/09/28 13:05:25;;;;;;;12.23;2.40;;;;;;;;;;4918350;29;20054;-81
2023/09/28 13:07:52;;;;;;;11.25;2.35;;;;;;;;;;4919727;29;20024;-78
2023/09/28 13:10:24;;;;;;;14.32;2.92;;;;;;;;;;4918588;29;20455;-78
2023/09/28 13:12:51;;;;;;;9.68;2.15;;;;;;;;;;4918432;29;20027;-78
2023/09/28 13:15:17;;;;;;;13.52;2.75;;;;;;;;;;4919540;29;20032;-78
2023/09/28 13:17:44;;;;;;;13.25;2.53;;;;;;;;;;4919019;29;20028;-78
2023/09/28 13:20:11;;;;;;;12.55;2.28;;;;;;;;;;4918639;29;20469;-78
2023/09/28 13:22:37;;;;;;;13.85;2.47;;;;;;;;;;4918062;29;20028;-78
2023/09/28 13:25:08;;;;;;;9.32;2.25;;;;;;;;;;4918453;29;20036;-78
2023/09/28 13:27:34;;;;;;;10.07;2.00;;;;;;;;;;4918688;29;20031;-78
2023/09/28 13:30:07;;;;;;;11.77;2.55;;;;;;;;;;4918429;29;20445;-78
2023/09/28 13:32:33;;;;;;;10.50;2.03;;;;;;;;;;4919416;29;20032;-78
2023/09/28 13:34:59;;;;;;;11.27;1.73;;;;;;;;;;4916896;29;20056;-78
2023/09/28 13:37:25;;;;;;;12.82;1.83;;;;;;;;;;4918316;29;20028;-78
2023/09/28 13:39:53;;;;;;;17.92;2.20;;;;;;;;;;4919049;29;20103;-79
2023/09/28 13:42:20;;;;;;;15.32;2.17;;;;;;;;;;4919032;29;20076;-79
2023/09/28 13:44:46;;;;;;;10.10;2.30;;;;;;;;;;4918181;29;20032;-79
2023/09/28 13:47:13;;;;;;;9.15;1.90;;;;;;;;;;4917847;29;20028;-78
2023/09/28 13:49:39;;;;;;;10.30;1.85;;;;;;;;;;4917956;29;20035;-78
2023/09/28 13:52:05;;;;;;;10.23;1.95;;;;;;;;;;4916110;29;20629;-78
2023/09/28 13:54:32;;;;;;;11.07;2.08;;;;;;;;;;4918026;29;20036;-78
2023/09/28 13:56:59;;;;;;;9.38;1.80;;;;;;;;;;4917163;29;20434;-78
2023/09/28 13:59:25;;;;;;;13.70;2.05;;;;;;;;;;4917266;29;20691;-78
2023/09/28 14:01:51;;;;;;;7.60;1.63;;;;;;;;;;4917396;29;20032;-78
2023/09/28 14:04:18;;;;;;;7.97;2.08;;;;;;;;;;4917555;29;20466;-78
2023/09/28 14:06:44;;;;;;;12.00;2.08;;;;;;;;;;4917225;29;20030;-78
2023/09/28 14:09:11;;;;;;;11.25;2.10;;;;;;;;;;4917145;29;20168;-78
2023/09/28 14:11:42;;;;;;;11.05;2.53;;;;;;;;;;4914951;29;20508;-78
2023/09/28 14:14:08;;;;;;;11.63;2.30;;;;;;;;;;4917208;29;20047;-78
2023/09/28 14:16:36;;;;;;;8.50;2.13;;;;;;;;;;4916891;29;20055;-78
2023/09/28 14:19:02;;;;;;;9.07;1.70;;;;;;;;;;4917128;29;20027;-78
2023/09/28 14:21:28;;;;;;;13.80;2.53;;;;;;;;;;4916454;29;20032;-78
2023/09/28 14:23:55;;;;;;;14.00;2.10;;;;;;;;;;4916349;29;20044;-78
2023/09/28 14:26:21;;;;;;;20.30;4.35;;;;;;;;;;4917248;29;20447;-78
2023/09/28 14:28:47;;;;;;;7.68;1.80;;;;;;;;;;4915574;29;20028;-78
2023/09/28 14:31:14;;;;;;;11.90;1.75;;;;;;;;;;4916626;29;20020;-78
2023/09/28 14:33:40;;;;;;;11.68;1.90;;;;;;;;;;4916488;29;20394;-78
2023/09/28 14:36:07;;;;;;;10.93;2.10;;;;;;;;;;4916754;29;20056;-78
2023/09/28 14:38:33;;;;;;;9.05;1.55;;;;;;;;;;4916523;29;20043;-78
2023/09/28 14:40:59;;;;;;;9.25;1.80;;;;;;;;;;4917188;29;20041;-78
2023/09/28 14:43:25;;;;;;;13.85;1.85;;;;;;;;;;4917487;29;20032;-80
2023/09/28 14:45:51;;;;;;;13.38;2.10;;;;;;;;;;4918107;29;20058;-80
2023/09/28 14:48:17;;;;;;;9.45;2.17;;;;;;;;;;4918797;29;20087;-80
2023/09/28 14:50:44;;;;;;;8.82;2.05;;;;;;;;;;4918771;29;20435;-80
2023/09/28 14:53:12;;;;;;;10.45;2.03;;;;;;;;;;4921918;29;20426;-80
2023/09/28 14:55:38;;;;;;;9.13;1.73;;;;;;;;;;4922601;29;20031;-80
2023/09/28 14:58:05;;;;;;;10.27;2.00;;;;;;;;;;4920266;29;20060;-80
2023/09/28 15:00:31;;;;;;;9.45;2.08;;;;;;;;;;4921348;29;20049;-80
2023/09/28 15:02:58;;;;;;;10.07;2.30;;;;;;;;;;4923771;29;20028;-80
2023/09/28 15:05:25;;;;;;;10.18;1.73;;;;;;;;;;4918029;29;20032;-80
2023/09/28 15:07:52;;;;;;;10.05;1.63;;;;;;;;;;4918877;29;20023;-80
2023/09/28 15:10:18;;;;;;;7.97;1.67;;;;;;;;;;4918158;29;20099;-80
2023/09/28 15:12:44;;;;;;;13.20;1.95;;;;;;;;;;4917872;29;20051;-80
2023/09/28 15:15:10;;;;;;;9.27;1.90;;;;;;;;;;4918653;29;20028;-80
2023/09/28 15:17:36;;;;;;;11.75;2.15;;;;;;;;;;4918235;29;20029;-80
2023/09/28 15:20:05;;;;;;;9.77;3.40;;;;;;;;;;4918251;29;20032;-80
2023/09/28 15:22:32;;;;;;;9.95;5.72;;;;;;;;;;4923795;29;20024;-81
2023/09/28 15:24:58;;;;;;;10.70;3.78;;;;;;;;;;4927277;29;20032;-82
2023/09/28 15:27:24;;;;;;;12.02;5.65;;;;;;;;;;4927016;29;20107;-80
2023/09/28 15:29:50;;;;;;;14.18;3.17;;;;;;;;;;4925645;29;20456;-80
2023/09/28 15:32:16;;;;;;;9.88;4.03;;;;;;;;;;4924635;29;20075;-81
2023/09/28 15:34:43;;;;;;;12.73;2.00;;;;;;;;;;4926569;29;20035;-80
2023/09/28 15:37:11;;;;;;;11.20;3.03;;;;;;;;;;4926960;29;20368;-80
2023/09/28 15:39:37;;;;;;;10.02;2.80;;;;;;;;;;4922123;29;20035;-80
2023/09/28 15:42:07;;;;;;;10.52;2.63;;;;;;;;;;4922634;29;20076;-80
2023/09/28 15:44:36;;;;;;;9.55;2.33;;;;;;;;;;4920459;29;20043;-80
2023/09/28 15:47:02;;;;;;;8.23;1.95;;;;;;;;;;4925274;29;20025;-80
2023/09/28 15:49:28;;;;;;;9.18;2.13;;;;;;;;;;4927141;29;20044;-80
2023/09/28 15:51:55;;;;;;;12.93;2.25;;;;;;;;;;4922776;29;20020;-80
2023/09/28 15:54:21;;;;;;;8.73;2.00;;;;;;;;;;4922729;29;20056;-80
2023/09/28 15:56:47;;;;;;;8.40;1.95;;;;;;;;;;4920445;29;20080;-80
2023/09/28 15:59:13;;;;;;;13.45;1.73;;;;;;;;;;4921241;29;20081;-80
2023/09/28 16:01:41;;;;;;;8.82;2.20;;;;;;;;;;4919116;29;20032;-80
2023/09/28 16:04:07;;;;;;;8.38;2.20;;;;;;;;;;4921214;29;20040;-80
2023/09/28 16:06:33;;;;;;;7.80;1.80;;;;;;;;;;4921773;29;20103;-80
2023/09/28 16:09:00;;;;;;;11.82;1.77;;;;;;;;;;4920146;29;20037;-80
2023/09/28 16:11:26;;;;;;;8.57;1.85;;;;;;;;;;4921259;29;20088;-80
2023/09/28 16:13:52;;;;;;;9.82;1.70;;;;;;;;;;4925782;29;20028;-80
2023/09/28 16:16:20;;;;;;;10.57;1.77;;;;;;;;;;4920299;29;20032;-80